Wetterstation Vordersexau
Wetterdaten: Juni 2013
Datum Temp. A. Feuchte A. Luftdruck Regen Wind Richtung Taupunkt Windchill Windben
01.06.2013 12,4 C 64 % 1011,4 hPa 28,5 l/m 0,3 km/h NW 5,7 C 12,3 C 0,2 km/h
02.06.2013 15,6 C 60 % 1018,3 hPa 0,0 l/m 2,1 km/h O-NO 7,3 C 15,4 C 1,2 km/h
03.06.2013 11,7 C 67 % 1021,4 hPa 0,0 l/m 1,5 km/h SO 5,4 C 11,6 C 0,8 km/h
04.06.2013 17,9 C 58 % 1016,7 hPa 0,0 l/m 1,5 km/h NO 8,8 C 17,7 C 0,8 km/h
05.06.2013 19,1 C 66 % 1013,9 hPa 0,5 l/m 3,8 km/h N-NW 11,8 C 18,8 C 2,1 km/h
06.06.2013 21,4 C 57 % 1015,1 hPa 0,0 l/m 1,5 km/h O-NO 11,1 C 21,3 C 0,8 km/h
07.06.2013 19,2 C 67 % 1015,7 hPa 4,7 l/m 2,8 km/h O-NO 12,2 C 18,9 C 1,6 km/h
08.06.2013 22,1 C 61 % 1011,6 hPa 0,0 l/m 1,9 km/h O-NO 13,6 C 21,9 C 1,1 km/h
09.06.2013 21,5 C 61 % 1007,6 hPa 3,1 l/m 3,9 km/h W 12,9 C 21,0 C 2,2 km/h
10.06.2013 16,0 C 77 % 1009,4 hPa 11,4 l/m 5,2 km/h W 12,0 C 15,2 C 2,9 km/h
11.06.2013 19,4 C 62 % 1015,2 hPa 10,9 l/m 0,6 km/h S-SO 11,2 C 19,4 C 0,3 km/h
12.06.2013 20,4 C 64 % 1017,6 hPa 0,0 l/m 4,8 km/h S-SO 12,6 C 20,1 C 2,7 km/h
13.06.2013 22,9 C 61 % 1015,5 hPa 3,1 l/m 5,1 km/h S-SO 14,2 C 22,7 C 2,8 km/h
14.06.2013 17,9 C 67 % 1017,9 hPa 8,8 l/m 1,5 km/h NO 11,4 C 17,7 C 0,8 km/h
15.06.2013 18,7 C 66 % 1013,8 hPa 0,0 l/m 9,5 km/h S-SO 11,7 C 17,8 C 5,3 km/h
16.06.2013 23,5 C 59 % 1013,8 hPa 0,0 l/m 0,1 km/h S-SO 14,0 C 23,5 C 0,0 km/h
17.06.2013 26,8 C 60 % 1010,2 hPa 0,0 l/m 0,5 km/h S-SO 17,3 C 26,8 C 0,3 km/h
18.06.2013 28,9 C 59 % 1011,5 hPa 0,0 l/m 5,1 km/h S 19,2 C 28,7 C 2,8 km/h
19.06.2013 28,4 C 58 % 1009,0 hPa 0,0 l/m 0,5 km/h SO 18,2 C 28,4 C 0,3 km/h
20.06.2013 21,4 C 73 % 1011,3 hPa 0,5 l/m 1,4 km/h SO 16,2 C 21,4 C 0,8 km/h
21.06.2013 19,9 C 64 % 1014,4 hPa 0,5 l/m 8,2 km/h W 12,6 C 18,7 C 4,6 km/h
22.06.2013 21,2 C 60 % 1015,6 hPa 0,0 l/m 9,6 km/h W 12,5 C 20,2 C 5,3 km/h
23.06.2013 18,4 C 61 % 1015,0 hPa 0,0 l/m 12,9 km/h W-SW 10,6 C 16,2 C 7,2 km/h
24.06.2013 15,7 C 70 % 1019,0 hPa 2,6 l/m 3,9 km/h W-NW 10,1 C 15,1 C 2,2 km/h
25.06.2013 14,1 C 73 % 1023,2 hPa 1,0 l/m 1,0 km/h N-NW 9,1 C 13,9 C 0,6 km/h
26.06.2013 16,1 C 60 % 1025,3 hPa 0,0 l/m 1,6 km/h NO 7,6 C 15,9 C 0,9 km/h
27.06.2013 12,9 C 76 % 1022,2 hPa 3,1 l/m 1,4 km/h S-SO 8,6 C 12,7 C 0,8 km/h
28.06.2013 16,0 C 64 % 1019,4 hPa 3,1 l/m 1,5 km/h S-SO 8,6 C 15,9 C 0,8 km/h
29.06.2013 14,9 C 77 % 1018,3 hPa 12,9 l/m 4,1 km/h W-SW 10,9 C 14,2 C 2,3 km/h
30.06.2013 18,7 C 64 % 1021,0 hPa 0,0 l/m 1,2 km/h O-SO 11,1 C 18,7 C 0,7 km/h
Min-Datum 03.06.13 06.06.13 09.06.13 15 Tage 01.06.13 - 03.06.13 03.06.13 01.06.13
Min-Zeit 05:19 16:19 20:19 - 01:19 - 05:19 05:19 01:19
Minimum 4,9 C 26 % 1005,2 hPa - 0,0 km/h - 2,4 C 4,9 C 0,0 km/h
Max-Datum 17.06.13 02.06.13 26.06.13 01.06.13 15.06.13 - 19.06.13 17.06.13 15.06.13
Max-Zeit 18:19 08:19 11:19 10:19 11:19 - 19:19 18:19 11:19
Maximum 44,2 C 84 % 1026,1 hPa 28,5 l/m 40,8 km/h
S-SO
- 22,8 C 44,2 C 22,7 km/h
S-SO
Durchschnitt 19,1 C 65 % 1015,7 hPa #94,8 l/m 3,3 km/h S-SO 11,6 C 18,7 C 1,8 km/h

Durchschnitt Minimum Temp.11,3 C
Durchschnitt Maximum Temp.29,3 C
www.sexauwetter.de